sensor_id;sensor_type;location;lat;lon;timestamp;temperature;humidity
24162;DHT22;12318;51.262;7.066;2023-05-14T00:01:30;13.10;93.00
24162;DHT22;12318;51.262;7.066;2023-05-14T00:03:56;13.40;91.60
24162;DHT22;12318;51.262;7.066;2023-05-14T00:06:22;13.60;90.60
24162;DHT22;12318;51.262;7.066;2023-05-14T00:08:48;13.60;90.20
24162;DHT22;12318;51.262;7.066;2023-05-14T00:11:14;13.70;90.30
24162;DHT22;12318;51.262;7.066;2023-05-14T00:13:40;13.60;90.50
24162;DHT22;12318;51.262;7.066;2023-05-14T00:16:06;13.30;91.50
24162;DHT22;12318;51.262;7.066;2023-05-14T00:18:32;13.00;92.30
24162;DHT22;12318;51.262;7.066;2023-05-14T00:20:57;13.00;92.70
24162;DHT22;12318;51.262;7.066;2023-05-14T00:23:23;12.90;92.60
24162;DHT22;12318;51.262;7.066;2023-05-14T00:25:49;13.00;92.80
24162;DHT22;12318;51.262;7.066;2023-05-14T00:28:15;13.10;92.00
24162;DHT22;12318;51.262;7.066;2023-05-14T00:30:41;13.20;91.70
24162;DHT22;12318;51.262;7.066;2023-05-14T00:33:06;13.30;90.80
24162;DHT22;12318;51.262;7.066;2023-05-14T00:35:33;13.30;90.90
24162;DHT22;12318;51.262;7.066;2023-05-14T00:38:00;13.20;91.20
24162;DHT22;12318;51.262;7.066;2023-05-14T00:40:27;13.10;91.50
24162;DHT22;12318;51.262;7.066;2023-05-14T00:42:54;13.10;91.60
24162;DHT22;12318;51.262;7.066;2023-05-14T00:45:20;13.20;91.70
24162;DHT22;12318;51.262;7.066;2023-05-14T00:47:48;13.10;91.80
24162;DHT22;12318;51.262;7.066;2023-05-14T00:50:15;13.10;91.70
24162;DHT22;12318;51.262;7.066;2023-05-14T00:52:41;13.20;91.50
24162;DHT22;12318;51.262;7.066;2023-05-14T00:55:07;13.20;91.10
24162;DHT22;12318;51.262;7.066;2023-05-14T00:57:34;13.20;91.00
24162;DHT22;12318;51.262;7.066;2023-05-14T01:00:01;13.30;91.20
24162;DHT22;12318;51.262;7.066;2023-05-14T01:02:30;13.40;91.10
24162;DHT22;12318;51.262;7.066;2023-05-14T01:04:56;13.30;90.90
24162;DHT22;12318;51.262;7.066;2023-05-14T01:10:35;13.20;91.60
24162;DHT22;12318;51.262;7.066;2023-05-14T01:14:00;13.20;92.60
24162;DHT22;12318;51.262;7.066;2023-05-14T01:16:01;12.80;94.60
24162;DHT22;12318;51.262;7.066;2023-05-14T01:18:29;12.50;96.70
24162;DHT22;12318;51.262;7.066;2023-05-14T01:20:56;12.50;97.30
24162;DHT22;12318;51.262;7.066;2023-05-14T01:23:22;12.40;98.00
24162;DHT22;12318;51.262;7.066;2023-05-14T01:25:48;12.40;98.40
24162;DHT22;12318;51.262;7.066;2023-05-14T01:28:27;12.40;98.60
24162;DHT22;12318;51.262;7.066;2023-05-14T01:31:11;12.40;99.30
24162;DHT22;12318;51.262;7.066;2023-05-14T01:33:41;12.30;99.90
24162;DHT22;12318;51.262;7.066;2023-05-14T01:36:08;12.30;99.50
24162;DHT22;12318;51.262;7.066;2023-05-14T01:38:35;12.30;99.00
24162;DHT22;12318;51.262;7.066;2023-05-14T01:41:02;12.20;99.60
24162;DHT22;12318;51.262;7.066;2023-05-14T01:43:28;12.20;99.90
24162;DHT22;12318;51.262;7.066;2023-05-14T01:45:57;12.20;99.90
24162;DHT22;12318;51.262;7.066;2023-05-14T01:48:23;12.30;99.90
24162;DHT22;12318;51.262;7.066;2023-05-14T01:50:49;12.50;99.40
24162;DHT22;12318;51.262;7.066;2023-05-14T01:53:15;12.30;99.90
24162;DHT22;12318;51.262;7.066;2023-05-14T01:55:42;12.10;99.90
24162;DHT22;12318;51.262;7.066;2023-05-14T01:58:07;11.90;99.90
24162;DHT22;12318;51.262;7.066;2023-05-14T02:00:33;12.00;99.90
24162;DHT22;12318;51.262;7.066;2023-05-14T02:02:59;12.00;99.90
24162;DHT22;12318;51.262;7.066;2023-05-14T02:05:25;12.10;99.90
24162;DHT22;12318;51.262;7.066;2023-05-14T02:07:51;12.00;99.90
24162;DHT22;12318;51.262;7.066;2023-05-14T02:10:16;11.90;99.90
24162;DHT22;12318;51.262;7.066;2023-05-14T02:12:42;12.00;99.90
24162;DHT22;12318;51.262;7.066;2023-05-14T02:15:09;12.10;99.90
24162;DHT22;12318;51.262;7.066;2023-05-14T02:17:35;11.90;99.90
24162;DHT22;12318;51.262;7.066;2023-05-14T02:20:01;11.70;99.90
24162;DHT22;12318;51.262;7.066;2023-05-14T02:22:27;11.70;99.90
24162;DHT22;12318;51.262;7.066;2023-05-14T02:24:53;11.60;99.90
24162;DHT22;12318;51.262;7.066;2023-05-14T02:27:18;11.60;99.90
24162;DHT22;12318;51.262;7.066;2023-05-14T02:29:46;11.50;99.90
24162;DHT22;12318;51.262;7.066;2023-05-14T02:32:12;11.40;99.90
24162;DHT22;12318;51.262;7.066;2023-05-14T02:34:37;11.40;99.90
24162;DHT22;12318;51.262;7.066;2023-05-14T02:37:03;11.40;99.90
24162;DHT22;12318;51.262;7.066;2023-05-14T02:39:29;11.40;99.90
24162;DHT22;12318;51.262;7.066;2023-05-14T02:41:55;11.50;99.90
24162;DHT22;12318;51.262;7.066;2023-05-14T02:44:21;11.50;99.90
24162;DHT22;12318;51.262;7.066;2023-05-14T02:46:47;11.60;99.90
24162;DHT22;12318;51.262;7.066;2023-05-14T02:49:12;11.60;99.90
24162;DHT22;12318;51.262;7.066;2023-05-14T02:51:38;11.60;99.90
24162;DHT22;12318;51.262;7.066;2023-05-14T02:54:04;11.70;99.90
24162;DHT22;12318;51.262;7.066;2023-05-14T02:56:30;11.60;99.90
24162;DHT22;12318;51.262;7.066;2023-05-14T02:58:56;11.30;99.90
24162;DHT22;12318;51.262;7.066;2023-05-14T03:01:21;11.30;99.90
24162;DHT22;12318;51.262;7.066;2023-05-14T03:03:47;11.30;99.90
24162;DHT22;12318;51.262;7.066;2023-05-14T03:06:14;11.30;99.90
24162;DHT22;12318;51.262;7.066;2023-05-14T03:08:39;11.30;99.90
24162;DHT22;12318;51.262;7.066;2023-05-14T03:11:06;11.40;99.90
24162;DHT22;12318;51.262;7.066;2023-05-14T03:13:31;11.30;99.90
24162;DHT22;12318;51.262;7.066;2023-05-14T03:15:57;11.30;99.90
24162;DHT22;12318;51.262;7.066;2023-05-14T03:18:26;11.40;99.90
24162;DHT22;12318;51.262;7.066;2023-05-14T03:20:55;11.50;99.90
24162;DHT22;12318;51.262;7.066;2023-05-14T03:23:21;11.50;99.90
24162;DHT22;12318;51.262;7.066;2023-05-14T03:25:47;11.50;99.90
24162;DHT22;12318;51.262;7.066;2023-05-14T03:28:12;11.50;99.90
24162;DHT22;12318;51.262;7.066;2023-05-14T03:30:38;11.30;99.90
24162;DHT22;12318;51.262;7.066;2023-05-14T03:33:04;11.20;99.90
24162;DHT22;12318;51.262;7.066;2023-05-14T03:35:30;11.10;99.90
24162;DHT22;12318;51.262;7.066;2023-05-14T03:37:56;11.00;99.90
24162;DHT22;12318;51.262;7.066;2023-05-14T03:40:26;11.00;99.90
24162;DHT22;12318;51.262;7.066;2023-05-14T03:42:52;11.00;99.90
24162;DHT22;12318;51.262;7.066;2023-05-14T03:45:18;11.00;99.90
24162;DHT22;12318;51.262;7.066;2023-05-14T03:47:44;11.00;99.90
24162;DHT22;12318;51.262;7.066;2023-05-14T03:50:09;10.90;99.90
24162;DHT22;12318;51.262;7.066;2023-05-14T03:52:35;10.80;99.90
24162;DHT22;12318;51.262;7.066;2023-05-14T03:55:01;10.60;99.90
24162;DHT22;12318;51.262;7.066;2023-05-14T03:57:27;10.60;99.90
24162;DHT22;12318;51.262;7.066;2023-05-14T03:59:53;10.50;99.90
24162;DHT22;12318;51.262;7.066;2023-05-14T04:02:19;10.40;99.90
24162;DHT22;12318;51.262;7.066;2023-05-14T04:04:45;10.20;99.90
24162;DHT22;12318;51.262;7.066;2023-05-14T04:07:11;10.20;99.90
24162;DHT22;12318;51.262;7.066;2023-05-14T04:09:36;10.10;99.90
24162;DHT22;12318;51.262;7.066;2023-05-14T04:12:03;9.90;99.90
24162;DHT22;12318;51.262;7.066;2023-05-14T04:14:29;9.80;99.90
24162;DHT22;12318;51.262;7.066;2023-05-14T04:16:55;9.70;99.90
24162;DHT22;12318;51.262;7.066;2023-05-14T04:19:20;9.80;99.90
24162;DHT22;12318;51.262;7.066;2023-05-14T04:21:46;9.80;99.90
24162;DHT22;12318;51.262;7.066;2023-05-14T04:24:12;9.80;99.90
24162;DHT22;12318;51.262;7.066;2023-05-14T04:26:38;10.00;99.90
24162;DHT22;12318;51.262;7.066;2023-05-14T04:29:03;10.10;99.90
24162;DHT22;12318;51.262;7.066;2023-05-14T04:31:29;10.00;99.90
24162;DHT22;12318;51.262;7.066;2023-05-14T04:33:56;9.80;99.90
24162;DHT22;12318;51.262;7.066;2023-05-14T04:36:22;9.80;99.90
24162;DHT22;12318;51.262;7.066;2023-05-14T04:38:51;9.90;99.90
24162;DHT22;12318;51.262;7.066;2023-05-14T04:41:16;9.80;99.90
24162;DHT22;12318;51.262;7.066;2023-05-14T04:43:42;9.80;99.90
24162;DHT22;12318;51.262;7.066;2023-05-14T04:46:08;9.90;99.90
24162;DHT22;12318;51.262;7.066;2023-05-14T04:48:34;10.00;99.90
24162;DHT22;12318;51.262;7.066;2023-05-14T04:50:59;10.00;99.90
24162;DHT22;12318;51.262;7.066;2023-05-14T04:53:25;10.20;99.90
24162;DHT22;12318;51.262;7.066;2023-05-14T04:55:52;10.20;99.90
24162;DHT22;12318;51.262;7.066;2023-05-14T04:58:18;10.30;99.90
24162;DHT22;12318;51.262;7.066;2023-05-14T05:00:44;10.50;99.90
24162;DHT22;12318;51.262;7.066;2023-05-14T05:03:10;10.50;99.90
24162;DHT22;12318;51.262;7.066;2023-05-14T05:05:36;10.60;99.90
24162;DHT22;12318;51.262;7.066;2023-05-14T05:08:02;10.70;99.90
24162;DHT22;12318;51.262;7.066;2023-05-14T05:10:27;10.80;99.90
24162;DHT22;12318;51.262;7.066;2023-05-14T05:12:53;10.90;99.90
24162;DHT22;12318;51.262;7.066;2023-05-14T05:15:19;10.80;99.90
24162;DHT22;12318;51.262;7.066;2023-05-14T05:17:51;10.90;99.90
24162;DHT22;12318;51.262;7.066;2023-05-14T05:20:17;11.40;99.90
24162;DHT22;12318;51.262;7.066;2023-05-14T05:22:43;11.90;99.90
24162;DHT22;12318;51.262;7.066;2023-05-14T05:25:08;12.20;99.90
24162;DHT22;12318;51.262;7.066;2023-05-14T05:27:36;12.30;99.90
24162;DHT22;12318;51.262;7.066;2023-05-14T05:30:02;12.60;99.90
24162;DHT22;12318;51.262;7.066;2023-05-14T05:32:28;12.90;99.90
24162;DHT22;12318;51.262;7.066;2023-05-14T05:34:55;12.40;99.90
24162;DHT22;12318;51.262;7.066;2023-05-14T05:37:21;12.40;99.90
24162;DHT22;12318;51.262;7.066;2023-05-14T05:39:47;12.40;99.90
24162;DHT22;12318;51.262;7.066;2023-05-14T05:42:13;12.40;99.90
24162;DHT22;12318;51.262;7.066;2023-05-14T05:44:38;12.30;99.90
24162;DHT22;12318;51.262;7.066;2023-05-14T05:47:05;12.30;99.90
24162;DHT22;12318;51.262;7.066;2023-05-14T05:49:30;12.30;99.90
24162;DHT22;12318;51.262;7.066;2023-05-14T05:51:56;12.20;99.90
24162;DHT22;12318;51.262;7.066;2023-05-14T05:54:22;12.30;99.90
24162;DHT22;12318;51.262;7.066;2023-05-14T05:56:51;12.40;99.90
24162;DHT22;12318;51.262;7.066;2023-05-14T05:59:16;12.60;99.90
24162;DHT22;12318;51.262;7.066;2023-05-14T06:01:42;13.00;99.90
24162;DHT22;12318;51.262;7.066;2023-05-14T06:04:08;13.40;99.90
24162;DHT22;12318;51.262;7.066;2023-05-14T06:06:35;13.50;99.90
24162;DHT22;12318;51.262;7.066;2023-05-14T06:09:00;13.80;99.90
24162;DHT22;12318;51.262;7.066;2023-05-14T06:11:26;14.00;99.90
24162;DHT22;12318;51.262;7.066;2023-05-14T06:13:52;14.30;99.90
24162;DHT22;12318;51.262;7.066;2023-05-14T06:16:18;14.00;99.90
24162;DHT22;12318;51.262;7.066;2023-05-14T06:18:44;13.80;99.90
24162;DHT22;12318;51.262;7.066;2023-05-14T06:21:10;13.90;99.90
24162;DHT22;12318;51.262;7.066;2023-05-14T06:23:36;14.20;99.90
24162;DHT22;12318;51.262;7.066;2023-05-14T06:26:02;14.30;99.90
24162;DHT22;12318;51.262;7.066;2023-05-14T06:28:28;14.20;99.90
24162;DHT22;12318;51.262;7.066;2023-05-14T06:30:57;14.10;99.90
24162;DHT22;12318;51.262;7.066;2023-05-14T06:33:22;14.00;99.90
24162;DHT22;12318;51.262;7.066;2023-05-14T06:35:59;14.00;99.90
24162;DHT22;12318;51.262;7.066;2023-05-14T06:38:25;14.10;99.90
24162;DHT22;12318;51.262;7.066;2023-05-14T06:40:51;14.40;99.90
24162;DHT22;12318;51.262;7.066;2023-05-14T06:43:22;14.50;99.90
24162;DHT22;12318;51.262;7.066;2023-05-14T06:45:54;14.50;99.90
24162;DHT22;12318;51.262;7.066;2023-05-14T06:48:20;14.60;99.90
24162;DHT22;12318;51.262;7.066;2023-05-14T06:50:47;14.70;99.90
24162;DHT22;12318;51.262;7.066;2023-05-14T06:53:13;14.70;99.90
24162;DHT22;12318;51.262;7.066;2023-05-14T06:55:40;14.70;99.90
24162;DHT22;12318;51.262;7.066;2023-05-14T06:58:06;14.80;99.90
24162;DHT22;12318;51.262;7.066;2023-05-14T07:00:32;15.00;99.90
24162;DHT22;12318;51.262;7.066;2023-05-14T07:02:58;15.10;99.90
24162;DHT22;12318;51.262;7.066;2023-05-14T07:05:24;15.30;99.90
24162;DHT22;12318;51.262;7.066;2023-05-14T07:07:50;15.30;99.90
24162;DHT22;12318;51.262;7.066;2023-05-14T07:10:15;15.50;99.90
24162;DHT22;12318;51.262;7.066;2023-05-14T07:12:41;15.60;99.90
24162;DHT22;12318;51.262;7.066;2023-05-14T07:15:08;15.40;99.90
24162;DHT22;12318;51.262;7.066;2023-05-14T07:17:34;15.30;99.90
24162;DHT22;12318;51.262;7.066;2023-05-14T07:19:59;15.50;99.90
24162;DHT22;12318;51.262;7.066;2023-05-14T07:22:25;15.60;99.90
24162;DHT22;12318;51.262;7.066;2023-05-14T07:24:51;15.80;99.90
24162;DHT22;12318;51.262;7.066;2023-05-14T07:27:17;15.90;99.90
24162;DHT22;12318;51.262;7.066;2023-05-14T07:29:45;16.20;99.90
24162;DHT22;12318;51.262;7.066;2023-05-14T07:32:13;16.40;99.90
24162;DHT22;12318;51.262;7.066;2023-05-14T07:34:42;16.30;99.90
24162;DHT22;12318;51.262;7.066;2023-05-14T07:37:08;16.30;99.90
24162;DHT22;12318;51.262;7.066;2023-05-14T07:39:34;16.40;98.90
24162;DHT22;12318;51.262;7.066;2023-05-14T07:42:00;16.50;98.30
24162;DHT22;12318;51.262;7.066;2023-05-14T07:44:26;16.90;96.60
24162;DHT22;12318;51.262;7.066;2023-05-14T07:46:52;17.30;91.30
24162;DHT22;12318;51.262;7.066;2023-05-14T07:49:18;17.60;74.10
24162;DHT22;12318;51.262;7.066;2023-05-14T07:51:44;17.80;63.90
24162;DHT22;12318;51.262;7.066;2023-05-14T07:54:10;18.10;62.20
24162;DHT22;12318;51.262;7.066;2023-05-14T07:56:36;18.40;61.50
24162;DHT22;12318;51.262;7.066;2023-05-14T07:59:01;18.60;56.70
24162;DHT22;12318;51.262;7.066;2023-05-14T08:01:27;18.60;50.40
24162;DHT22;12318;51.262;7.066;2023-05-14T08:03:53;18.60;50.90
24162;DHT22;12318;51.262;7.066;2023-05-14T08:06:20;18.80;54.50
24162;DHT22;12318;51.262;7.066;2023-05-14T08:08:47;18.80;48.90
24162;DHT22;12318;51.262;7.066;2023-05-14T08:11:13;18.80;46.70
24162;DHT22;12318;51.262;7.066;2023-05-14T08:13:38;19.00;46.30
24162;DHT22;12318;51.262;7.066;2023-05-14T08:16:05;19.20;47.40
24162;DHT22;12318;51.262;7.066;2023-05-14T08:18:31;19.00;43.30
24162;DHT22;12318;51.262;7.066;2023-05-14T08:20:57;19.00;42.80
24162;DHT22;12318;51.262;7.066;2023-05-14T08:23:22;19.00;41.80
24162;DHT22;12318;51.262;7.066;2023-05-14T08:25:48;18.90;39.40
24162;DHT22;12318;51.262;7.066;2023-05-14T08:28:14;19.00;41.50
24162;DHT22;12318;51.262;7.066;2023-05-14T08:30:40;19.20;40.80
24162;DHT22;12318;51.262;7.066;2023-05-14T08:33:05;19.30;40.70
24162;DHT22;12318;51.262;7.066;2023-05-14T08:35:32;19.20;40.60
24162;DHT22;12318;51.262;7.066;2023-05-14T08:38:00;19.10;41.40
24162;DHT22;12318;51.262;7.066;2023-05-14T08:40:26;19.30;40.80
24162;DHT22;12318;51.262;7.066;2023-05-14T08:42:52;19.40;40.60
24162;DHT22;12318;51.262;7.066;2023-05-14T08:45:20;19.50;45.70
24162;DHT22;12318;51.262;7.066;2023-05-14T08:47:50;19.40;43.50
24162;DHT22;12318;51.262;7.066;2023-05-14T08:50:16;19.40;40.20
24162;DHT22;12318;51.262;7.066;2023-05-14T08:52:43;19.50;42.50
24162;DHT22;12318;51.262;7.066;2023-05-14T08:55:11;19.50;41.30
24162;DHT22;12318;51.262;7.066;2023-05-14T08:57:37;19.60;37.70
24162;DHT22;12318;51.262;7.066;2023-05-14T09:00:04;19.50;38.70
24162;DHT22;12318;51.262;7.066;2023-05-14T09:02:36;19.50;35.50
24162;DHT22;12318;51.262;7.066;2023-05-14T09:05:04;19.60;38.70
24162;DHT22;12318;51.262;7.066;2023-05-14T09:07:32;19.70;39.20
24162;DHT22;12318;51.262;7.066;2023-05-14T09:09:58;19.80;41.60
24162;DHT22;12318;51.262;7.066;2023-05-14T09:12:24;19.90;37.00
24162;DHT22;12318;51.262;7.066;2023-05-14T09:14:50;19.80;34.10
24162;DHT22;12318;51.262;7.066;2023-05-14T09:17:16;19.50;35.50
24162;DHT22;12318;51.262;7.066;2023-05-14T09:19:43;19.60;36.20
24162;DHT22;12318;51.262;7.066;2023-05-14T09:22:13;19.80;39.10
24162;DHT22;12318;51.262;7.066;2023-05-14T09:24:39;20.00;38.40
24162;DHT22;12318;51.262;7.066;2023-05-14T09:27:06;19.80;35.20
24162;DHT22;12318;51.262;7.066;2023-05-14T09:29:32;19.80;36.10
24162;DHT22;12318;51.262;7.066;2023-05-14T09:31:59;19.50;32.80
24162;DHT22;12318;51.262;7.066;2023-05-14T09:34:34;19.40;33.00
24162;DHT22;12318;51.262;7.066;2023-05-14T09:37:07;19.40;34.80
24162;DHT22;12318;51.262;7.066;2023-05-14T09:39:34;19.60;33.70
24162;DHT22;12318;51.262;7.066;2023-05-14T09:42:01;19.50;32.10
24162;DHT22;12318;51.262;7.066;2023-05-14T09:44:27;19.60;31.10
24162;DHT22;12318;51.262;7.066;2023-05-14T09:46:53;19.60;32.10
24162;DHT22;12318;51.262;7.066;2023-05-14T09:49:19;19.60;31.70
24162;DHT22;12318;51.262;7.066;2023-05-14T09:51:45;19.60;31.20
24162;DHT22;12318;51.262;7.066;2023-05-14T09:54:15;19.60;34.90
24162;DHT22;12318;51.262;7.066;2023-05-14T09:56:52;19.60;30.20
24162;DHT22;12318;51.262;7.066;2023-05-14T09:59:24;19.70;37.50
24162;DHT22;12318;51.262;7.066;2023-05-14T10:01:51;20.00;33.10
24162;DHT22;12318;51.262;7.066;2023-05-14T10:04:21;19.70;33.40
24162;DHT22;12318;51.262;7.066;2023-05-14T10:06:49;20.00;35.00
24162;DHT22;12318;51.262;7.066;2023-05-14T10:09:19;20.30;33.90
24162;DHT22;12318;51.262;7.066;2023-05-14T10:11:49;20.50;33.70
24162;DHT22;12318;51.262;7.066;2023-05-14T10:14:23;20.30;28.50
24162;DHT22;12318;51.262;7.066;2023-05-14T10:16:50;20.00;31.30
24162;DHT22;12318;51.262;7.066;2023-05-14T10:19:18;19.90;30.10
24162;DHT22;12318;51.262;7.066;2023-05-14T10:21:47;20.10;30.70
24162;DHT22;12318;51.262;7.066;2023-05-14T10:24:18;20.10;28.90
24162;DHT22;12318;51.262;7.066;2023-05-14T10:26:44;20.30;32.00
24162;DHT22;12318;51.262;7.066;2023-05-14T10:29:11;20.30;29.60
24162;DHT22;12318;51.262;7.066;2023-05-14T10:31:53;20.40;31.20
24162;DHT22;12318;51.262;7.066;2023-05-14T10:34:39;20.50;31.80
24162;DHT22;12318;51.262;7.066;2023-05-14T10:37:12;20.40;29.60
24162;DHT22;12318;51.262;7.066;2023-05-14T10:39:51;20.40;31.30
24162;DHT22;12318;51.262;7.066;2023-05-14T10:42:35;20.30;33.20
24162;DHT22;12318;51.262;7.066;2023-05-14T10:45:07;20.10;35.90
24162;DHT22;12318;51.262;7.066;2023-05-14T10:47:38;20.30;31.80
24162;DHT22;12318;51.262;7.066;2023-05-14T10:50:06;20.30;34.30
24162;DHT22;12318;51.262;7.066;2023-05-14T10:52:33;20.30;29.80
24162;DHT22;12318;51.262;7.066;2023-05-14T10:55:04;19.90;29.90
24162;DHT22;12318;51.262;7.066;2023-05-14T10:57:37;19.80;29.20
24162;DHT22;12318;51.262;7.066;2023-05-14T11:00:05;19.80;30.10
24162;DHT22;12318;51.262;7.066;2023-05-14T11:02:35;19.80;30.10
24162;DHT22;12318;51.262;7.066;2023-05-14T11:05:10;19.70;30.00
24162;DHT22;12318;51.262;7.066;2023-05-14T11:10:15;20.40;27.20
24162;DHT22;12318;51.262;7.066;2023-05-14T11:12:46;20.40;29.90
24162;DHT22;12318;51.262;7.066;2023-05-14T11:15:24;20.10;26.80
24162;DHT22;12318;51.262;7.066;2023-05-14T11:17:51;19.70;26.60
24162;DHT22;12318;51.262;7.066;2023-05-14T11:20:18;19.50;26.40
24162;DHT22;12318;51.262;7.066;2023-05-14T11:22:46;19.50;27.60
24162;DHT22;12318;51.262;7.066;2023-05-14T11:25:13;19.90;26.20
24162;DHT22;12318;51.262;7.066;2023-05-14T11:27:40;20.40;25.40
24162;DHT22;12318;51.262;7.066;2023-05-14T11:30:12;20.30;26.00
24162;DHT22;12318;51.262;7.066;2023-05-14T11:32:39;20.40;29.30
24162;DHT22;12318;51.262;7.066;2023-05-14T11:35:06;20.80;32.10
24162;DHT22;12318;51.262;7.066;2023-05-14T11:37:31;20.80;27.70
24162;DHT22;12318;51.262;7.066;2023-05-14T11:39:59;20.90;26.90
24162;DHT22;12318;51.262;7.066;2023-05-14T11:42:25;20.80;23.10
24162;DHT22;12318;51.262;7.066;2023-05-14T11:44:52;20.40;22.90
24162;DHT22;12318;51.262;7.066;2023-05-14T11:47:21;20.40;25.60
24162;DHT22;12318;51.262;7.066;2023-05-14T11:49:48;20.30;28.00
24162;DHT22;12318;51.262;7.066;2023-05-14T11:52:15;20.00;25.00
24162;DHT22;12318;51.262;7.066;2023-05-14T11:54:42;19.90;26.60
24162;DHT22;12318;51.262;7.066;2023-05-14T11:57:21;20.10;26.10
24162;DHT22;12318;51.262;7.066;2023-05-14T11:59:48;20.40;24.20
24162;DHT22;12318;51.262;7.066;2023-05-14T12:02:17;20.70;31.00
24162;DHT22;12318;51.262;7.066;2023-05-14T12:04:49;20.70;25.60
24162;DHT22;12318;51.262;7.066;2023-05-14T12:07:16;20.80;28.00
24162;DHT22;12318;51.262;7.066;2023-05-14T12:09:44;20.80;26.40
24162;DHT22;12318;51.262;7.066;2023-05-14T12:12:16;20.80;25.30
24162;DHT22;12318;51.262;7.066;2023-05-14T12:14:42;20.80;23.90
24162;DHT22;12318;51.262;7.066;2023-05-14T12:17:19;20.60;27.70
24162;DHT22;12318;51.262;7.066;2023-05-14T12:19:47;20.60;26.80
24162;DHT22;12318;51.262;7.066;2023-05-14T12:22:15;20.70;28.60
24162;DHT22;12318;51.262;7.066;2023-05-14T12:24:54;20.70;22.60
24162;DHT22;12318;51.262;7.066;2023-05-14T12:27:23;20.90;26.00
24162;DHT22;12318;51.262;7.066;2023-05-14T12:29:59;21.10;25.60
24162;DHT22;12318;51.262;7.066;2023-05-14T12:32:29;20.90;22.80
24162;DHT22;12318;51.262;7.066;2023-05-14T12:34:55;20.60;24.10
24162;DHT22;12318;51.262;7.066;2023-05-14T12:37:21;20.70;24.60
24162;DHT22;12318;51.262;7.066;2023-05-14T12:39:47;20.70;25.40
24162;DHT22;12318;51.262;7.066;2023-05-14T12:42:16;20.70;27.90
24162;DHT22;12318;51.262;7.066;2023-05-14T12:44:41;20.50;24.90
24162;DHT22;12318;51.262;7.066;2023-05-14T12:47:07;20.30;24.00
24162;DHT22;12318;51.262;7.066;2023-05-14T12:49:33;20.40;28.80
24162;DHT22;12318;51.262;7.066;2023-05-14T12:51:59;20.50;29.00
24162;DHT22;12318;51.262;7.066;2023-05-14T12:54:25;20.50;27.70
24162;DHT22;12318;51.262;7.066;2023-05-14T12:56:50;20.60;26.60
24162;DHT22;12318;51.262;7.066;2023-05-14T12:59:16;20.90;29.30
24162;DHT22;12318;51.262;7.066;2023-05-14T13:01:42;21.10;23.60
24162;DHT22;12318;51.262;7.066;2023-05-14T13:04:09;20.90;23.90
24162;DHT22;12318;51.262;7.066;2023-05-14T13:06:37;20.80;24.00
24162;DHT22;12318;51.262;7.066;2023-05-14T13:09:06;21.00;27.20
24162;DHT22;12318;51.262;7.066;2023-05-14T13:11:31;21.00;26.40
24162;DHT22;12318;51.262;7.066;2023-05-14T13:13:58;21.00;27.00
24162;DHT22;12318;51.262;7.066;2023-05-14T13:16:27;20.50;26.40
24162;DHT22;12318;51.262;7.066;2023-05-14T13:18:53;20.30;27.20
24162;DHT22;12318;51.262;7.066;2023-05-14T13:21:19;20.40;29.30
24162;DHT22;12318;51.262;7.066;2023-05-14T13:23:46;20.50;27.60
24162;DHT22;12318;51.262;7.066;2023-05-14T13:26:12;20.60;26.50
24162;DHT22;12318;51.262;7.066;2023-05-14T13:28:38;20.80;26.20
24162;DHT22;12318;51.262;7.066;2023-05-14T13:31:06;20.80;25.80
24162;DHT22;12318;51.262;7.066;2023-05-14T13:33:34;20.70;25.70
24162;DHT22;12318;51.262;7.066;2023-05-14T13:36:00;21.00;29.10
24162;DHT22;12318;51.262;7.066;2023-05-14T13:38:26;21.30;28.40
24162;DHT22;12318;51.262;7.066;2023-05-14T13:40:52;21.10;26.20
24162;DHT22;12318;51.262;7.066;2023-05-14T13:43:18;21.20;24.00
24162;DHT22;12318;51.262;7.066;2023-05-14T13:45:44;21.20;23.30
24162;DHT22;12318;51.262;7.066;2023-05-14T13:48:10;21.20;22.40
24162;DHT22;12318;51.262;7.066;2023-05-14T13:50:36;21.10;23.80
24162;DHT22;12318;51.262;7.066;2023-05-14T13:53:02;21.20;24.40
24162;DHT22;12318;51.262;7.066;2023-05-14T13:55:27;21.20;28.20
24162;DHT22;12318;51.262;7.066;2023-05-14T13:57:53;21.10;24.20
24162;DHT22;12318;51.262;7.066;2023-05-14T14:00:19;21.20;24.50
24162;DHT22;12318;51.262;7.066;2023-05-14T14:02:45;21.20;21.30
24162;DHT22;12318;51.262;7.066;2023-05-14T14:05:10;21.30;21.70
24162;DHT22;12318;51.262;7.066;2023-05-14T14:07:36;21.10;23.70
24162;DHT22;12318;51.262;7.066;2023-05-14T14:10:03;21.20;22.30
24162;DHT22;12318;51.262;7.066;2023-05-14T14:12:29;21.30;20.50
24162;DHT22;12318;51.262;7.066;2023-05-14T14:14:55;21.20;23.90
24162;DHT22;12318;51.262;7.066;2023-05-14T14:17:21;21.30;23.40
24162;DHT22;12318;51.262;7.066;2023-05-14T14:19:46;21.10;22.90
24162;DHT22;12318;51.262;7.066;2023-05-14T14:22:12;21.10;22.40
24162;DHT22;12318;51.262;7.066;2023-05-14T14:24:41;21.30;22.60
24162;DHT22;12318;51.262;7.066;2023-05-14T14:27:07;21.60;27.50
24162;DHT22;12318;51.262;7.066;2023-05-14T14:29:33;21.60;21.60
24162;DHT22;12318;51.262;7.066;2023-05-14T14:31:59;21.50;23.00
24162;DHT22;12318;51.262;7.066;2023-05-14T14:34:25;21.30;24.70
24162;DHT22;12318;51.262;7.066;2023-05-14T14:36:51;21.20;23.60
24162;DHT22;12318;51.262;7.066;2023-05-14T14:39:17;21.00;24.00
24162;DHT22;12318;51.262;7.066;2023-05-14T14:41:42;21.00;23.70
24162;DHT22;12318;51.262;7.066;2023-05-14T14:44:08;20.80;23.40
24162;DHT22;12318;51.262;7.066;2023-05-14T14:46:34;20.90;24.30
24162;DHT22;12318;51.262;7.066;2023-05-14T14:49:00;20.60;25.00
24162;DHT22;12318;51.262;7.066;2023-05-14T14:51:26;20.70;27.40
24162;DHT22;12318;51.262;7.066;2023-05-14T14:53:52;21.00;26.00
24162;DHT22;12318;51.262;7.066;2023-05-14T14:56:17;21.30;31.20
24162;DHT22;12318;51.262;7.066;2023-05-14T14:58:43;21.30;24.40
24162;DHT22;12318;51.262;7.066;2023-05-14T15:01:10;21.10;22.40
24162;DHT22;12318;51.262;7.066;2023-05-14T15:03:35;21.20;22.30
24162;DHT22;12318;51.262;7.066;2023-05-14T15:06:01;21.20;23.30
24162;DHT22;12318;51.262;7.066;2023-05-14T15:08:27;21.10;24.10
24162;DHT22;12318;51.262;7.066;2023-05-14T15:10:57;20.80;25.00
24162;DHT22;12318;51.262;7.066;2023-05-14T15:13:23;21.10;26.90
24162;DHT22;12318;51.262;7.066;2023-05-14T15:15:50;21.40;29.40
24162;DHT22;12318;51.262;7.066;2023-05-14T15:18:17;21.70;26.40
24162;DHT22;12318;51.262;7.066;2023-05-14T15:20:43;21.80;22.30
24162;DHT22;12318;51.262;7.066;2023-05-14T15:23:08;21.90;24.50
24162;DHT22;12318;51.262;7.066;2023-05-14T15:25:36;21.80;26.70
24162;DHT22;12318;51.262;7.066;2023-05-14T15:28:01;21.60;25.80
24162;DHT22;12318;51.262;7.066;2023-05-14T15:30:28;21.00;21.40
24162;DHT22;12318;51.262;7.066;2023-05-14T15:32:54;21.10;21.60
24162;DHT22;12318;51.262;7.066;2023-05-14T15:35:20;21.40;25.50
24162;DHT22;12318;51.262;7.066;2023-05-14T15:37:46;21.50;25.70